sensor_id;sensor_type;location;lat;lon;timestamp;pressure;altitude;pressure_sealevel;temperature;humidity
32131;BME280;18639;50.716;7.086;2023-04-26T00:01:24;100654.09;;;5.99;100.00
32131;BME280;18639;50.716;7.086;2023-04-26T00:03:54;100684.50;;;6.08;100.00
32131;BME280;18639;50.716;7.086;2023-04-26T00:06:51;100629.66;;;5.69;100.00
32131;BME280;18639;50.716;7.086;2023-04-26T00:09:46;100689.75;;;6.05;100.00
32131;BME280;18639;50.716;7.086;2023-04-26T00:15:15;100674.09;;;5.91;100.00
32131;BME280;18639;50.716;7.086;2023-04-26T00:18:16;100646.81;;;5.67;100.00
32131;BME280;18639;50.716;7.086;2023-04-26T00:20:54;100597.00;;;5.30;100.00
32131;BME280;18639;50.716;7.086;2023-04-26T00:23:22;100638.44;;;5.41;100.00
32131;BME280;18639;50.716;7.086;2023-04-26T00:25:50;100654.50;;;5.45;100.00
32131;BME280;18639;50.716;7.086;2023-04-26T00:28:21;100638.84;;;5.31;100.00
32131;BME280;18639;50.716;7.086;2023-04-26T00:30:54;100612.53;;;5.04;100.00
32131;BME280;18639;50.716;7.086;2023-04-26T00:34:02;100608.31;;;5.03;100.00
32131;BME280;18639;50.716;7.086;2023-04-26T00:36:31;100637.75;;;5.15;100.00
32131;BME280;18639;50.716;7.086;2023-04-26T00:38:56;100648.56;;;5.23;100.00
32131;BME280;18639;50.716;7.086;2023-04-26T00:41:32;100631.91;;;5.11;100.00
32131;BME280;18639;50.716;7.086;2023-04-26T00:43:59;100626.22;;;5.03;100.00
32131;BME280;18639;50.716;7.086;2023-04-26T00:46:25;100644.53;;;5.16;100.00
32131;BME280;18639;50.716;7.086;2023-04-26T00:48:56;100661.59;;;5.17;100.00
32131;BME280;18639;50.716;7.086;2023-04-26T00:51:31;100619.88;;;4.91;100.00
32131;BME280;18639;50.716;7.086;2023-04-26T00:53:57;100635.63;;;5.02;100.00
32131;BME280;18639;50.716;7.086;2023-04-26T00:56:23;100662.69;;;5.09;100.00
32131;BME280;18639;50.716;7.086;2023-04-26T01:06:15;100612.66;;;4.54;100.00
32131;BME280;18639;50.716;7.086;2023-04-26T01:13:24;100664.56;;;4.81;100.00
32131;BME280;18639;50.716;7.086;2023-04-26T01:20:07;100635.59;;;4.57;100.00
32131;BME280;18639;50.716;7.086;2023-04-26T01:32:18;100666.50;;;4.51;100.00
32131;BME280;18639;50.716;7.086;2023-04-26T01:35:01;100647.56;;;4.32;100.00
32131;BME280;18639;50.716;7.086;2023-04-26T01:37:59;100651.06;;;4.30;100.00
32131;BME280;18639;50.716;7.086;2023-04-26T01:41:14;100629.22;;;4.19;100.00
32131;BME280;18639;50.716;7.086;2023-04-26T01:50:30;100611.16;;;3.99;100.00
32131;BME280;18639;50.716;7.086;2023-04-26T01:52:55;100639.69;;;4.12;100.00
32131;BME280;18639;50.716;7.086;2023-04-26T01:55:40;100606.47;;;3.87;100.00
32131;BME280;18639;50.716;7.086;2023-04-26T01:58:09;100640.34;;;4.18;100.00
32131;BME280;18639;50.716;7.086;2023-04-26T02:03:35;100622.97;;;4.03;100.00
32131;BME280;18639;50.716;7.086;2023-04-26T02:06:27;100632.34;;;4.03;100.00
32131;BME280;18639;50.716;7.086;2023-04-26T02:12:06;100649.06;;;4.13;100.00
32131;BME280;18639;50.716;7.086;2023-04-26T02:14:48;100642.25;;;4.12;100.00
32131;BME280;18639;50.716;7.086;2023-04-26T02:17:26;100636.75;;;3.99;100.00
32131;BME280;18639;50.716;7.086;2023-04-26T02:20:08;100669.50;;;4.13;100.00
32131;BME280;18639;50.716;7.086;2023-04-26T02:22:36;100637.31;;;4.07;100.00
32131;BME280;18639;50.716;7.086;2023-04-26T02:25:16;100637.22;;;4.10;100.00
32131;BME280;18639;50.716;7.086;2023-04-26T02:28:23;100642.53;;;4.04;100.00
32131;BME280;18639;50.716;7.086;2023-04-26T02:31:07;100616.91;;;3.79;100.00
32131;BME280;18639;50.716;7.086;2023-04-26T02:33:40;100649.69;;;3.95;100.00
32131;BME280;18639;50.716;7.086;2023-04-26T02:36:06;100608.56;;;3.74;100.00
32131;BME280;18639;50.716;7.086;2023-04-26T02:38:35;100658.41;;;4.14;100.00
32131;BME280;18639;50.716;7.086;2023-04-26T02:41:02;100675.22;;;4.21;100.00
32131;BME280;18639;50.716;7.086;2023-04-26T02:43:28;100671.91;;;4.17;100.00
32131;BME280;18639;50.716;7.086;2023-04-26T02:45:53;100676.19;;;4.17;100.00
32131;BME280;18639;50.716;7.086;2023-04-26T02:48:22;100680.53;;;4.15;100.00
32131;BME280;18639;50.716;7.086;2023-04-26T02:50:48;100663.63;;;4.11;100.00
32131;BME280;18639;50.716;7.086;2023-04-26T02:53:13;100637.78;;;3.94;100.00
32131;BME280;18639;50.716;7.086;2023-04-26T02:55:40;100678.06;;;4.12;100.00
32131;BME280;18639;50.716;7.086;2023-04-26T02:58:05;100667.22;;;4.05;100.00
32131;BME280;18639;50.716;7.086;2023-04-26T03:00:31;100643.72;;;3.94;100.00
32131;BME280;18639;50.716;7.086;2023-04-26T03:02:58;100651.63;;;3.87;100.00
32131;BME280;18639;50.716;7.086;2023-04-26T03:05:23;100642.94;;;3.92;100.00
32131;BME280;18639;50.716;7.086;2023-04-26T03:07:49;100650.34;;;4.00;100.00
32131;BME280;18639;50.716;7.086;2023-04-26T03:10:15;100666.94;;;4.13;100.00
32131;BME280;18639;50.716;7.086;2023-04-26T03:12:41;100629.47;;;3.87;100.00
32131;BME280;18639;50.716;7.086;2023-04-26T03:15:07;100671.38;;;4.08;100.00
32131;BME280;18639;50.716;7.086;2023-04-26T03:17:32;100640.53;;;3.88;100.00
32131;BME280;18639;50.716;7.086;2023-04-26T03:19:58;100637.84;;;3.91;100.00
32131;BME280;18639;50.716;7.086;2023-04-26T03:22:23;100647.88;;;3.97;100.00
32131;BME280;18639;50.716;7.086;2023-04-26T03:24:49;100667.25;;;4.04;100.00
32131;BME280;18639;50.716;7.086;2023-04-26T03:27:17;100664.84;;;3.99;100.00
32131;BME280;18639;50.716;7.086;2023-04-26T03:29:43;100633.03;;;3.81;100.00
32131;BME280;18639;50.716;7.086;2023-04-26T03:32:09;100650.56;;;3.94;100.00
32131;BME280;18639;50.716;7.086;2023-04-26T03:34:35;100646.50;;;3.87;100.00
32131;BME280;18639;50.716;7.086;2023-04-26T03:37:01;100628.16;;;3.74;100.00
32131;BME280;18639;50.716;7.086;2023-04-26T03:43:46;100637.44;;;3.78;100.00
32131;BME280;18639;50.716;7.086;2023-04-26T03:46:39;100619.88;;;3.67;100.00
32131;BME280;18639;50.716;7.086;2023-04-26T03:49:18;100595.91;;;3.45;100.00
32131;BME280;18639;50.716;7.086;2023-04-26T03:51:46;100571.63;;;3.32;100.00
32131;BME280;18639;50.716;7.086;2023-04-26T03:54:16;100655.25;;;3.79;100.00
32131;BME280;18639;50.716;7.086;2023-04-26T03:56:42;100599.47;;;3.39;100.00
32131;BME280;18639;50.716;7.086;2023-04-26T03:59:07;100669.16;;;3.71;100.00
32131;BME280;18639;50.716;7.086;2023-04-26T04:01:34;100585.56;;;3.22;100.00
32131;BME280;18639;50.716;7.086;2023-04-26T04:04:00;100662.53;;;3.65;100.00
32131;BME280;18639;50.716;7.086;2023-04-26T04:06:26;100651.56;;;3.62;100.00
32131;BME280;18639;50.716;7.086;2023-04-26T04:08:54;100592.44;;;3.20;100.00
32131;BME280;18639;50.716;7.086;2023-04-26T04:11:21;100604.81;;;3.32;100.00
32131;BME280;18639;50.716;7.086;2023-04-26T04:13:47;100607.53;;;3.26;100.00
32131;BME280;18639;50.716;7.086;2023-04-26T04:16:12;100630.66;;;3.49;100.00
32131;BME280;18639;50.716;7.086;2023-04-26T04:18:37;100598.75;;;3.36;100.00
32131;BME280;18639;50.716;7.086;2023-04-26T04:21:03;100611.31;;;3.42;100.00
32131;BME280;18639;50.716;7.086;2023-04-26T04:23:28;100613.78;;;3.45;100.00
32131;BME280;18639;50.716;7.086;2023-04-26T04:25:54;100657.13;;;3.74;100.00
32131;BME280;18639;50.716;7.086;2023-04-26T04:28:19;100587.13;;;3.26;100.00
32131;BME280;18639;50.716;7.086;2023-04-26T04:30:46;100634.75;;;3.55;100.00
32131;BME280;18639;50.716;7.086;2023-04-26T04:33:21;100517.44;;;2.96;100.00
32131;BME280;18639;50.716;7.086;2023-04-26T04:35:49;100683.78;;;3.94;100.00
32131;BME280;18639;50.716;7.086;2023-04-26T04:38:16;100679.34;;;3.99;100.00
32131;BME280;18639;50.716;7.086;2023-04-26T04:40:42;100597.63;;;3.45;100.00
32131;BME280;18639;50.716;7.086;2023-04-26T04:43:18;100597.09;;;3.61;100.00
32131;BME280;18639;50.716;7.086;2023-04-26T04:46:12;100599.44;;;3.67;100.00
32131;BME280;18639;50.716;7.086;2023-04-26T04:48:40;100607.69;;;3.75;100.00
32131;BME280;18639;50.716;7.086;2023-04-26T04:51:06;100543.94;;;3.46;100.00
32131;BME280;18639;50.716;7.086;2023-04-26T04:53:32;100645.56;;;4.15;100.00
32131;BME280;18639;50.716;7.086;2023-04-26T04:55:58;100558.72;;;3.63;100.00
32131;BME280;18639;50.716;7.086;2023-04-26T04:58:23;100584.28;;;3.88;100.00
32131;BME280;18639;50.716;7.086;2023-04-26T05:15:29;100605.22;;;4.48;100.00
32131;BME280;18639;50.716;7.086;2023-04-26T05:25:09;100629.19;;;5.16;100.00
32131;BME280;18639;50.716;7.086;2023-04-26T05:27:49;100573.03;;;4.88;100.00
32131;BME280;18639;50.716;7.086;2023-04-26T05:30:48;100603.19;;;5.03;100.00
32131;BME280;18639;50.716;7.086;2023-04-26T05:33:24;100680.50;;;5.58;100.00
32131;BME280;18639;50.716;7.086;2023-04-26T05:35:50;100656.13;;;5.47;100.00
32131;BME280;18639;50.716;7.086;2023-04-26T05:38:16;100718.81;;;6.06;100.00
32131;BME280;18639;50.716;7.086;2023-04-26T05:40:42;100712.78;;;6.07;100.00
32131;BME280;18639;50.716;7.086;2023-04-26T05:43:07;100707.09;;;6.20;100.00
32131;BME280;18639;50.716;7.086;2023-04-26T05:45:32;100722.03;;;6.31;100.00
32131;BME280;18639;50.716;7.086;2023-04-26T05:47:58;100698.53;;;6.20;100.00
32131;BME280;18639;50.716;7.086;2023-04-26T05:50:23;100723.09;;;6.47;100.00
32131;BME280;18639;50.716;7.086;2023-04-26T05:52:48;100725.66;;;6.47;100.00
32131;BME280;18639;50.716;7.086;2023-04-26T05:55:13;100727.38;;;6.47;100.00
32131;BME280;18639;50.716;7.086;2023-04-26T05:57:39;100724.56;;;6.53;100.00
32131;BME280;18639;50.716;7.086;2023-04-26T06:00:05;100714.69;;;6.64;100.00
32131;BME280;18639;50.716;7.086;2023-04-26T06:02:33;100708.97;;;6.57;100.00
32131;BME280;18639;50.716;7.086;2023-04-26T06:04:58;100699.28;;;6.44;100.00
32131;BME280;18639;50.716;7.086;2023-04-26T06:07:24;100724.63;;;6.71;100.00
32131;BME280;18639;50.716;7.086;2023-04-26T06:09:49;100715.31;;;6.69;100.00
32131;BME280;18639;50.716;7.086;2023-04-26T06:12:15;100715.41;;;6.67;99.48
32131;BME280;18639;50.716;7.086;2023-04-26T06:14:41;100735.41;;;6.80;99.24
32131;BME280;18639;50.716;7.086;2023-04-26T06:17:06;100726.16;;;6.75;98.62
32131;BME280;18639;50.716;7.086;2023-04-26T06:19:31;100726.97;;;6.96;98.35
32131;BME280;18639;50.716;7.086;2023-04-26T06:21:56;100720.78;;;7.00;96.08
32131;BME280;18639;50.716;7.086;2023-04-26T06:24:24;100731.53;;;7.10;96.08
32131;BME280;18639;50.716;7.086;2023-04-26T06:26:53;100733.88;;;7.14;98.23
32131;BME280;18639;50.716;7.086;2023-04-26T06:29:19;100751.19;;;7.30;97.01
32131;BME280;18639;50.716;7.086;2023-04-26T06:31:49;100732.16;;;7.15;95.95
32131;BME280;18639;50.716;7.086;2023-04-26T06:34:14;100719.94;;;7.20;96.42
32131;BME280;18639;50.716;7.086;2023-04-26T06:36:39;100739.44;;;7.43;97.05
32131;BME280;18639;50.716;7.086;2023-04-26T06:39:05;100756.91;;;7.55;95.93
32131;BME280;18639;50.716;7.086;2023-04-26T06:41:31;100720.56;;;7.44;95.26
32131;BME280;18639;50.716;7.086;2023-04-26T06:43:57;100746.19;;;7.64;95.73
32131;BME280;18639;50.716;7.086;2023-04-26T06:46:23;100743.13;;;7.75;94.61
32131;BME280;18639;50.716;7.086;2023-04-26T06:48:48;100739.91;;;7.70;93.47
32131;BME280;18639;50.716;7.086;2023-04-26T07:01:51;100709.28;;;8.01;89.95
32131;BME280;18639;50.716;7.086;2023-04-26T07:11:16;100717.28;;;8.65;88.86
32131;BME280;18639;50.716;7.086;2023-04-26T07:13:41;100728.25;;;8.86;85.79
32131;BME280;18639;50.716;7.086;2023-04-26T07:21:27;100736.34;;;8.78;86.94
32131;BME280;18639;50.716;7.086;2023-04-26T07:24:02;100623.31;;;8.22;85.64
32131;BME280;18639;50.716;7.086;2023-04-26T07:26:41;100681.22;;;8.65;81.23
32131;BME280;18639;50.716;7.086;2023-04-26T07:29:21;100732.13;;;9.10;80.93
32131;BME280;18639;50.716;7.086;2023-04-26T07:35:22;100674.69;;;8.75;82.06
32131;BME280;18639;50.716;7.086;2023-04-26T07:37:58;100746.59;;;9.13;81.30
32131;BME280;18639;50.716;7.086;2023-04-26T07:44:09;100702.97;;;8.93;78.74
32131;BME280;18639;50.716;7.086;2023-04-26T07:49:59;100674.72;;;8.58;82.34
32131;BME280;18639;50.716;7.086;2023-04-26T07:53:00;100670.03;;;8.49;80.67
32131;BME280;18639;50.716;7.086;2023-04-26T07:55:38;100678.47;;;8.68;79.65
32131;BME280;18639;50.716;7.086;2023-04-26T07:58:44;100747.63;;;9.26;79.56
32131;BME280;18639;50.716;7.086;2023-04-26T08:04:28;100739.00;;;9.58;80.10
32131;BME280;18639;50.716;7.086;2023-04-26T08:24:02;100628.56;;;9.49;76.45
32131;BME280;18639;50.716;7.086;2023-04-26T08:50:35;100624.97;;;10.27;65.29
32131;BME280;18639;50.716;7.086;2023-04-26T09:35:37;100707.59;;;11.42;54.66
32131;BME280;18639;50.716;7.086;2023-04-26T09:38:14;100713.59;;;11.28;53.84
32131;BME280;18639;50.716;7.086;2023-04-26T09:40:48;100716.22;;;11.00;53.92
32131;BME280;18639;50.716;7.086;2023-04-26T09:43:43;100663.63;;;10.43;53.71
32131;BME280;18639;50.716;7.086;2023-04-26T09:49:52;100656.81;;;10.42;54.53
32131;BME280;18639;50.716;7.086;2023-04-26T09:52:18;100608.00;;;10.23;54.52
32131;BME280;18639;50.716;7.086;2023-04-26T09:54:51;100615.75;;;10.37;56.61
32131;BME280;18639;50.716;7.086;2023-04-26T09:57:18;100663.69;;;11.00;56.76
32131;BME280;18639;50.716;7.086;2023-04-26T09:59:55;100634.13;;;10.89;52.93
32131;BME280;18639;50.716;7.086;2023-04-26T10:02:23;100698.56;;;11.21;54.01
32131;BME280;18639;50.716;7.086;2023-04-26T10:04:55;100657.38;;;11.04;54.46
32131;BME280;18639;50.716;7.086;2023-04-26T10:13:49;100646.16;;;11.31;52.15
32131;BME280;18639;50.716;7.086;2023-04-26T10:16:16;100626.47;;;11.56;53.82
32131;BME280;18639;50.716;7.086;2023-04-26T10:18:46;100630.00;;;12.46;53.94
32131;BME280;18639;50.716;7.086;2023-04-26T10:21:33;100681.22;;;13.90;47.98
32131;BME280;18639;50.716;7.086;2023-04-26T10:24:03;100661.00;;;14.41;49.85
32131;BME280;18639;50.716;7.086;2023-04-26T10:29:14;100676.25;;;16.30;45.64
32131;BME280;18639;50.716;7.086;2023-04-26T10:34:27;100677.06;;;16.72;40.70
32131;BME280;18639;50.716;7.086;2023-04-26T10:39:40;100663.47;;;16.69;39.82
32131;BME280;18639;50.716;7.086;2023-04-26T10:42:26;100669.47;;;16.39;39.68
32131;BME280;18639;50.716;7.086;2023-04-26T10:44:55;100668.38;;;15.68;38.52
32131;BME280;18639;50.716;7.086;2023-04-26T10:47:32;100664.06;;;15.13;41.14
32131;BME280;18639;50.716;7.086;2023-04-26T10:50:10;100668.22;;;14.60;40.88
32131;BME280;18639;50.716;7.086;2023-04-26T10:55:37;100653.81;;;14.10;43.46
32131;BME280;18639;50.716;7.086;2023-04-26T10:58:30;100660.59;;;14.00;43.77
32131;BME280;18639;50.716;7.086;2023-04-26T11:01:16;100658.50;;;14.05;43.01
32131;BME280;18639;50.716;7.086;2023-04-26T11:04:27;100650.94;;;14.02;41.82
32131;BME280;18639;50.716;7.086;2023-04-26T11:06:48;100651.25;;;13.26;41.44
32131;BME280;18639;50.716;7.086;2023-04-26T11:09:34;100649.06;;;13.32;43.85
32131;BME280;18639;50.716;7.086;2023-04-26T11:12:06;100650.63;;;13.35;44.49
32131;BME280;18639;50.716;7.086;2023-04-26T11:14:35;100645.91;;;13.16;45.50
32131;BME280;18639;50.716;7.086;2023-04-26T11:17:05;100638.56;;;12.97;44.99
32131;BME280;18639;50.716;7.086;2023-04-26T11:19:31;100642.50;;;13.03;46.51
32131;BME280;18639;50.716;7.086;2023-04-26T11:21:57;100632.25;;;12.76;47.67
32131;BME280;18639;50.716;7.086;2023-04-26T11:24:27;100638.66;;;12.96;47.41
32131;BME280;18639;50.716;7.086;2023-04-26T11:26:52;100637.25;;;13.28;48.61
32131;BME280;18639;50.716;7.086;2023-04-26T11:29:18;100629.63;;;13.38;46.89
32131;BME280;18639;50.716;7.086;2023-04-26T11:31:55;100636.19;;;13.31;44.74
32131;BME280;18639;50.716;7.086;2023-04-26T11:34:30;100637.59;;;13.24;44.93
32131;BME280;18639;50.716;7.086;2023-04-26T11:36:56;100626.41;;;12.98;44.23
32131;BME280;18639;50.716;7.086;2023-04-26T11:39:21;100611.72;;;12.86;46.61
32131;BME280;18639;50.716;7.086;2023-04-26T11:41:47;100619.34;;;13.00;45.47
32131;BME280;18639;50.716;7.086;2023-04-26T11:44:17;100608.31;;;13.22;44.72
32131;BME280;18639;50.716;7.086;2023-04-26T11:46:42;100625.72;;;13.32;46.42
32131;BME280;18639;50.716;7.086;2023-04-26T11:49:08;100600.81;;;13.30;45.00
32131;BME280;18639;50.716;7.086;2023-04-26T11:51:33;100619.03;;;13.41;45.20
32131;BME280;18639;50.716;7.086;2023-04-26T11:53:59;100618.50;;;13.25;44.04
32131;BME280;18639;50.716;7.086;2023-04-26T11:56:25;100601.50;;;12.95;43.57
32131;BME280;18639;50.716;7.086;2023-04-26T11:58:51;100609.47;;;13.05;43.89
32131;BME280;18639;50.716;7.086;2023-04-26T12:01:27;100610.41;;;13.17;44.87
32131;BME280;18639;50.716;7.086;2023-04-26T12:03:55;100583.25;;;12.97;45.23
32131;BME280;18639;50.716;7.086;2023-04-26T12:06:45;100591.53;;;13.02;45.10
32131;BME280;18639;50.716;7.086;2023-04-26T12:09:11;100601.00;;;12.90;44.66
32131;BME280;18639;50.716;7.086;2023-04-26T12:11:37;100608.38;;;12.96;46.12
32131;BME280;18639;50.716;7.086;2023-04-26T12:14:03;100601.75;;;12.80;45.51
32131;BME280;18639;50.716;7.086;2023-04-26T12:16:29;100612.72;;;12.83;45.55
32131;BME280;18639;50.716;7.086;2023-04-26T12:18:54;100606.47;;;12.98;44.40
32131;BME280;18639;50.716;7.086;2023-04-26T12:21:21;100596.47;;;12.69;45.09
32131;BME280;18639;50.716;7.086;2023-04-26T12:23:46;100609.94;;;12.86;44.98
32131;BME280;18639;50.716;7.086;2023-04-26T12:26:13;100615.72;;;13.02;46.68
32131;BME280;18639;50.716;7.086;2023-04-26T12:28:38;100616.03;;;12.98;44.46
32131;BME280;18639;50.716;7.086;2023-04-26T12:31:04;100615.50;;;13.05;44.71
32131;BME280;18639;50.716;7.086;2023-04-26T12:33:30;100622.72;;;13.26;46.86
32131;BME280;18639;50.716;7.086;2023-04-26T12:35:57;100613.03;;;12.91;43.01
32131;BME280;18639;50.716;7.086;2023-04-26T12:38:24;100599.91;;;12.82;43.95
32131;BME280;18639;50.716;7.086;2023-04-26T12:40:53;100571.03;;;12.86;44.54
32131;BME280;18639;50.716;7.086;2023-04-26T12:43:30;100596.50;;;13.05;45.43
32131;BME280;18639;50.716;7.086;2023-04-26T12:45:58;100613.97;;;12.90;42.90
32131;BME280;18639;50.716;7.086;2023-04-26T12:48:29;100597.41;;;12.80;44.78
32131;BME280;18639;50.716;7.086;2023-04-26T12:50:58;100625.47;;;12.99;46.03
32131;BME280;18639;50.716;7.086;2023-04-26T12:53:24;100605.81;;;13.20;45.71
32131;BME280;18639;50.716;7.086;2023-04-26T12:55:53;100606.66;;;13.21;44.26
32131;BME280;18639;50.716;7.086;2023-04-26T12:58:21;100555.22;;;13.02;44.32
32131;BME280;18639;50.716;7.086;2023-04-26T13:00:47;100547.75;;;12.97;44.47
32131;BME280;18639;50.716;7.086;2023-04-26T13:03:15;100569.28;;;13.11;43.61
32131;BME280;18639;50.716;7.086;2023-04-26T13:05:42;100550.00;;;12.78;43.19
32131;BME280;18639;50.716;7.086;2023-04-26T13:08:11;100554.59;;;12.98;44.64
32131;BME280;18639;50.716;7.086;2023-04-26T13:10:36;100597.94;;;13.09;44.69
32131;BME280;18639;50.716;7.086;2023-04-26T13:13:01;100576.16;;;13.12;45.10
32131;BME280;18639;50.716;7.086;2023-04-26T13:15:27;100579.88;;;13.20;44.71
32131;BME280;18639;50.716;7.086;2023-04-26T13:17:53;100593.13;;;13.28;42.10
32131;BME280;18639;50.716;7.086;2023-04-26T13:20:19;100539.63;;;12.78;43.50
32131;BME280;18639;50.716;7.086;2023-04-26T13:22:44;100594.84;;;13.17;44.65
32131;BME280;18639;50.716;7.086;2023-04-26T13:25:10;100589.31;;;13.21;42.68
32131;BME280;18639;50.716;7.086;2023-04-26T13:27:37;100588.81;;;13.16;43.38
32131;BME280;18639;50.716;7.086;2023-04-26T13:30:03;100584.78;;;12.99;44.52
32131;BME280;18639;50.716;7.086;2023-04-26T13:32:28;100590.53;;;12.79;41.83
32131;BME280;18639;50.716;7.086;2023-04-26T13:34:53;100583.75;;;12.53;44.05
32131;BME280;18639;50.716;7.086;2023-04-26T13:37:19;100594.03;;;12.42;44.51
32131;BME280;18639;50.716;7.086;2023-04-26T13:39:45;100595.34;;;12.35;46.57
32131;BME280;18639;50.716;7.086;2023-04-26T13:42:12;100578.91;;;12.23;46.48
32131;BME280;18639;50.716;7.086;2023-04-26T13:44:38;100593.81;;;12.32;46.34
32131;BME280;18639;50.716;7.086;2023-04-26T13:47:04;100591.63;;;12.26;48.01
32131;BME280;18639;50.716;7.086;2023-04-26T13:49:30;100572.97;;;11.96;44.05
32131;BME280;18639;50.716;7.086;2023-04-26T13:51:56;100594.03;;;12.16;45.09
32131;BME280;18639;50.716;7.086;2023-04-26T13:54:21;100592.66;;;11.98;44.26
32131;BME280;18639;50.716;7.086;2023-04-26T13:56:47;100581.47;;;11.85;43.99
32131;BME280;18639;50.716;7.086;2023-04-26T13:59:12;100586.00;;;11.81;46.90
32131;BME280;18639;50.716;7.086;2023-04-26T14:01:37;100592.97;;;11.94;45.68
32131;BME280;18639;50.716;7.086;2023-04-26T14:04:04;100570.06;;;11.88;43.97
32131;BME280;18639;50.716;7.086;2023-04-26T14:06:29;100578.97;;;11.84;46.71
32131;BME280;18639;50.716;7.086;2023-04-26T14:08:57;100569.75;;;11.79;45.68
32131;BME280;18639;50.716;7.086;2023-04-26T14:11:22;100552.03;;;11.73;48.82
32131;BME280;18639;50.716;7.086;2023-04-26T14:13:47;100567.56;;;11.86;47.63
32131;BME280;18639;50.716;7.086;2023-04-26T14:16:14;100570.50;;;12.07;45.15
32131;BME280;18639;50.716;7.086;2023-04-26T14:18:41;100541.66;;;11.86;46.71
32131;BME280;18639;50.716;7.086;2023-04-26T14:21:12;100566.25;;;12.06;47.06
32131;BME280;18639;50.716;7.086;2023-04-26T14:23:37;100563.75;;;12.04;45.46
32131;BME280;18639;50.716;7.086;2023-04-26T14:26:03;100571.00;;;12.24;46.70
32131;BME280;18639;50.716;7.086;2023-04-26T14:28:28;100560.97;;;12.20;46.15
32131;BME280;18639;50.716;7.086;2023-04-26T14:30:54;100565.41;;;12.31;46.29
32131;BME280;18639;50.716;7.086;2023-04-26T14:33:19;100565.19;;;12.46;45.90
32131;BME280;18639;50.716;7.086;2023-04-26T14:35:46;100572.69;;;12.38;45.65
32131;BME280;18639;50.716;7.086;2023-04-26T14:38:11;100565.72;;;12.26;45.44
32131;BME280;18639;50.716;7.086;2023-04-26T14:40:36;100562.41;;;12.49;44.61
32131;BME280;18639;50.716;7.086;2023-04-26T14:43:02;100541.38;;;12.16;44.04
32131;BME280;18639;50.716;7.086;2023-04-26T14:45:27;100564.72;;;12.29;46.20
32131;BME280;18639;50.716;7.086;2023-04-26T14:47:52;100559.53;;;12.29;47.20
32131;BME280;18639;50.716;7.086;2023-04-26T14:50:17;100541.28;;;12.17;45.36
32131;BME280;18639;50.716;7.086;2023-04-26T14:52:44;100557.31;;;12.48;45.36
32131;BME280;18639;50.716;7.086;2023-04-26T14:55:09;100535.25;;;12.30;44.86
32131;BME280;18639;50.716;7.086;2023-04-26T14:57:35;100560.56;;;12.39;46.41
32131;BME280;18639;50.716;7.086;2023-04-26T15:00:00;100555.47;;;12.24;47.17
32131;BME280;18639;50.716;7.086;2023-04-26T15:02:31;100564.47;;;12.19;46.87
32131;BME280;18639;50.716;7.086;2023-04-26T15:04:57;100549.84;;;11.93;47.36
32131;BME280;18639;50.716;7.086;2023-04-26T15:07:22;100559.19;;;11.95;48.41
32131;BME280;18639;50.716;7.086;2023-04-26T15:09:47;100556.78;;;11.92;48.03
32131;BME280;18639;50.716;7.086;2023-04-26T15:12:13;100540.13;;;11.84;48.19
32131;BME280;18639;50.716;7.086;2023-04-26T15:14:38;100545.78;;;11.76;47.17
32131;BME280;18639;50.716;7.086;2023-04-26T15:17:03;100543.97;;;11.91;47.46
32131;BME280;18639;50.716;7.086;2023-04-26T15:19:28;100547.91;;;11.96;48.26
32131;BME280;18639;50.716;7.086;2023-04-26T15:21:54;100546.84;;;11.86;46.86
32131;BME280;18639;50.716;7.086;2023-04-26T15:24:20;100535.69;;;11.86;46.42
32131;BME280;18639;50.716;7.086;2023-04-26T15:26:46;100520.34;;;11.95;46.73
32131;BME280;18639;50.716;7.086;2023-04-26T15:29:11;100519.50;;;11.82;46.02
32131;BME280;18639;50.716;7.086;2023-04-26T15:31:36;100541.91;;;11.96;46.73
32131;BME280;18639;50.716;7.086;2023-04-26T15:34:01;100531.22;;;11.75;46.35
32131;BME280;18639;50.716;7.086;2023-04-26T15:36:27;100550.78;;;11.79;45.89
32131;BME280;18639;50.716;7.086;2023-04-26T15:38:53;100548.41;;;11.89;47.37
32131;BME280;18639;50.716;7.086;2023-04-26T15:41:18;100525.41;;;11.84;47.53
32131;BME280;18639;50.716;7.086;2023-04-26T15:43:43;100546.22;;;12.08;47.93
32131;BME280;18639;50.716;7.086;2023-04-26T15:46:12;100538.56;;;11.94;45.94
32131;BME280;18639;50.716;7.086;2023-04-26T15:48:37;100543.47;;;12.11;46.77
32131;BME280;18639;50.716;7.086;2023-04-26T15:51:04;100524.78;;;12.18;47.41
32131;BME280;18639;50.716;7.086;2023-04-26T15:53:29;100549.66;;;12.34;47.28
32131;BME280;18639;50.716;7.086;2023-04-26T15:55:54;100549.78;;;12.32;46.50
32131;BME280;18639;50.716;7.086;2023-04-26T15:58:19;100541.34;;;12.41;47.05
32131;BME280;18639;50.716;7.086;2023-04-26T16:00:45;100525.69;;;12.43;47.38
32131;BME280;18639;50.716;7.086;2023-04-26T16:03:10;100542.69;;;12.47;47.53
32131;BME280;18639;50.716;7.086;2023-04-26T16:05:35;100528.19;;;12.44;46.46
32131;BME280;18639;50.716;7.086;2023-04-26T16:08:00;100530.28;;;12.39;46.43
32131;BME280;18639;50.716;7.086;2023-04-26T16:10:27;100542.69;;;12.34;46.46
32131;BME280;18639;50.716;7.086;2023-04-26T16:12:52;100543.34;;;12.38;45.77
32131;BME280;18639;50.716;7.086;2023-04-26T16:15:17;100543.25;;;12.27;47.14
32131;BME280;18639;50.716;7.086;2023-04-26T16:17:43;100539.41;;;12.19;46.69
32131;BME280;18639;50.716;7.086;2023-04-26T16:20:09;100530.09;;;12.04;46.45
32131;BME280;18639;50.716;7.086;2023-04-26T16:22:34;100549.56;;;12.22;47.29
32131;BME280;18639;50.716;7.086;2023-04-26T16:25:00;100544.38;;;12.10;47.11
32131;BME280;18639;50.716;7.086;2023-04-26T16:27:26;100541.56;;;12.13;47.75
32131;BME280;18639;50.716;7.086;2023-04-26T16:29:52;100534.84;;;12.10;47.91
32131;BME280;18639;50.716;7.086;2023-04-26T16:32:18;100541.06;;;12.08;49.38